createdAt,value
2023-01-26T00:01:20.530Z,58.40
2023-01-26T00:03:50.633Z,56.97
2023-01-26T00:06:20.130Z,58.20
2023-01-26T00:08:50.198Z,58.80
2023-01-26T00:11:20.375Z,59.07
2023-01-26T00:13:51.760Z,57.40
2023-01-26T00:16:20.756Z,57.97
2023-01-26T00:18:50.413Z,60.60
2023-01-26T00:21:20.437Z,58.63
2023-01-26T00:23:49.036Z,61.53
2023-01-26T00:26:18.723Z,54.97
2023-01-26T00:28:46.905Z,58.20
2023-01-26T00:31:16.739Z,54.73
2023-01-26T00:33:45.288Z,60.13
2023-01-26T00:36:15.325Z,58.73
2023-01-26T00:38:44.288Z,58.80
2023-01-26T00:41:29.675Z,60.37
2023-01-26T00:44:01.355Z,64.57
2023-01-26T00:46:29.581Z,57.77
2023-01-26T00:48:57.856Z,52.67
2023-01-26T00:51:27.391Z,58.00
2023-01-26T00:53:55.733Z,61.93
2023-01-26T00:56:23.849Z,59.70
2023-01-26T00:58:52.008Z,53.43
2023-01-26T01:01:20.060Z,56.07
2023-01-26T01:03:48.108Z,57.50
2023-01-26T01:06:16.344Z,62.63
2023-01-26T01:08:45.994Z,59.90
2023-01-26T01:11:14.151Z,56.93
2023-01-26T01:13:42.581Z,60.90
2023-01-26T01:16:12.978Z,62.73
2023-01-26T01:18:41.839Z,58.80
2023-01-26T01:21:12.537Z,60.27
2023-01-26T01:23:40.942Z,57.10
2023-01-26T01:26:12.067Z,53.43
2023-01-26T01:28:40.522Z,63.60
2023-01-26T01:31:09.938Z,59.57
2023-01-26T01:33:41.245Z,59.00
2023-01-26T01:36:13.240Z,63.70
2023-01-26T01:38:42.040Z,59.60
2023-01-26T01:41:17.618Z,58.47
2023-01-26T01:43:46.538Z,55.13
2023-01-26T01:46:27.763Z,57.93
2023-01-26T01:48:59.846Z,54.53
2023-01-26T01:51:35.133Z,48.53
2023-01-26T01:54:06.574Z,51.03
2023-01-26T01:56:38.965Z,52.13
2023-01-26T01:59:08.322Z,51.47
2023-01-26T02:01:36.697Z,52.80
2023-01-26T02:04:08.483Z,55.60
2023-01-26T02:06:47.249Z,58.50
2023-01-26T02:09:30.864Z,48.70
2023-01-26T02:12:01.011Z,56.70
2023-01-26T02:14:30.460Z,52.50
2023-01-26T02:16:58.678Z,51.03
2023-01-26T02:19:33.607Z,52.90
2023-01-26T02:22:08.747Z,52.70
2023-01-26T02:24:40.044Z,50.40
2023-01-26T02:27:09.758Z,52.10
2023-01-26T02:29:38.313Z,55.40
2023-01-26T02:32:06.747Z,51.77
2023-01-26T02:34:35.008Z,54.67
2023-01-26T02:37:03.170Z,54.23
2023-01-26T02:39:47.271Z,58.37
2023-01-26T02:42:36.048Z,53.93
2023-01-26T02:45:04.512Z,55.67
2023-01-26T02:47:32.715Z,57.00
2023-01-26T02:50:00.655Z,51.53
2023-01-26T02:52:31.942Z,52.30
2023-01-26T02:55:24.948Z,57.40
2023-01-26T02:57:56.432Z,55.20
2023-01-26T03:00:27.408Z,50.97
2023-01-26T03:02:58.063Z,53.37
2023-01-26T03:05:27.109Z,53.77
2023-01-26T03:07:56.964Z,62.67
2023-01-26T03:10:31.021Z,57.27
2023-01-26T03:13:00.840Z,55.67
2023-01-26T03:15:52.475Z,54.80
2023-01-26T03:18:41.721Z,55.87
2023-01-26T03:21:30.754Z,56.13
2023-01-26T03:24:16.976Z,58.30
2023-01-26T03:27:03.168Z,58.60
2023-01-26T03:29:35.659Z,50.50
2023-01-26T03:32:04.391Z,59.33
2023-01-26T03:34:33.091Z,56.43
2023-01-26T03:37:01.328Z,52.60
2023-01-26T03:39:54.499Z,53.87
2023-01-26T03:42:40.103Z,59.90
2023-01-26T03:45:28.454Z,61.00
2023-01-26T03:48:22.958Z,56.03
2023-01-26T03:51:08.737Z,56.60
2023-01-26T03:53:54.333Z,54.07
2023-01-26T03:56:23.074Z,55.47
2023-01-26T03:58:55.052Z,57.63
2023-01-26T04:01:28.678Z,56.23
2023-01-26T04:04:17.635Z,60.07
2023-01-26T04:07:07.237Z,57.70
2023-01-26T04:09:39.511Z,61.13
2023-01-26T04:12:10.243Z,58.23
2023-01-26T04:15:08.622Z,56.50
2023-01-26T04:17:55.924Z,57.27
2023-01-26T04:20:41.966Z,55.97
2023-01-26T04:23:18.974Z,58.13
2023-01-26T04:25:48.701Z,59.10
2023-01-26T04:28:17.139Z,60.73
2023-01-26T04:30:45.822Z,55.73
2023-01-26T04:33:15.412Z,55.60
2023-01-26T04:35:43.640Z,58.70
2023-01-26T04:38:12.047Z,52.87
2023-01-26T04:40:42.915Z,52.30
2023-01-26T04:43:11.082Z,56.93
2023-01-26T04:45:39.246Z,53.50
2023-01-26T04:48:08.614Z,51.93
2023-01-26T04:50:38.132Z,52.87
2023-01-26T04:53:06.679Z,53.43
2023-01-26T04:55:34.830Z,54.70
2023-01-26T04:58:03.951Z,53.50
2023-01-26T05:00:32.370Z,64.00
2023-01-26T05:03:01.778Z,63.63
2023-01-26T05:05:30.154Z,81.43
2023-01-26T05:08:02.111Z,69.83
2023-01-26T05:10:33.752Z,56.80
2023-01-26T05:13:26.461Z,58.53
2023-01-26T05:16:16.144Z,53.07
2023-01-26T05:18:58.471Z,55.13
2023-01-26T05:21:45.969Z,55.20
2023-01-26T05:24:22.440Z,56.57
2023-01-26T05:27:22.480Z,54.57
2023-01-26T05:30:00.360Z,53.50
2023-01-26T05:32:31.316Z,54.83
2023-01-26T05:35:01.366Z,55.63
2023-01-26T05:37:32.592Z,50.50
2023-01-26T05:40:04.033Z,52.30
2023-01-26T05:42:32.416Z,54.40
2023-01-26T05:45:03.267Z,49.73
2023-01-26T05:47:34.024Z,52.33
2023-01-26T05:50:02.309Z,50.30
2023-01-26T05:52:35.414Z,58.23
2023-01-26T05:55:27.842Z,72.17
2023-01-26T05:57:57.982Z,57.90
2023-01-26T06:00:32.057Z,46.60
2023-01-26T06:03:16.290Z,48.20
2023-01-26T06:05:53.450Z,44.90
2023-01-26T06:08:33.254Z,46.93
2023-01-26T06:11:37.806Z,44.37
2023-01-26T06:14:10.858Z,44.70
2023-01-26T06:16:44.047Z,40.17
2023-01-26T06:19:15.445Z,39.90
2023-01-26T06:21:50.713Z,43.63
2023-01-26T06:24:24.090Z,43.30
2023-01-26T06:27:12.595Z,40.73
2023-01-26T06:29:51.026Z,42.10
2023-01-26T06:32:21.507Z,40.43
2023-01-26T06:34:56.649Z,32.43
2023-01-26T06:37:29.587Z,51.67
2023-01-26T06:39:57.950Z,78.83
2023-01-26T06:42:27.596Z,53.97
2023-01-26T06:44:57.533Z,46.47
2023-01-26T06:47:26.470Z,38.00
2023-01-26T06:50:00.244Z,41.33
2023-01-26T06:52:32.498Z,40.40
2023-01-26T06:55:20.219Z,43.30
2023-01-26T06:57:56.312Z,38.90
2023-01-26T07:00:54.233Z,41.60
2023-01-26T07:03:34.614Z,41.43
2023-01-26T07:06:02.806Z,40.03
2023-01-26T07:08:31.442Z,39.13
2023-01-26T07:10:59.599Z,41.87
2023-01-26T07:13:29.349Z,40.67
2023-01-26T07:16:02.579Z,39.50
2023-01-26T07:18:31.414Z,37.47
2023-01-26T07:21:02.542Z,42.27
2023-01-26T07:23:30.880Z,40.00
2023-01-26T07:25:59.788Z,37.70
2023-01-26T07:28:30.565Z,40.53
2023-01-26T07:30:59.345Z,39.03
2023-01-26T07:33:27.893Z,37.20
2023-01-26T07:35:57.388Z,46.33
2023-01-26T07:38:26.268Z,39.20
2023-01-26T07:40:54.506Z,39.93
2023-01-26T07:43:23.104Z,38.97
2023-01-26T07:45:56.042Z,43.17
2023-01-26T07:48:25.466Z,40.30
2023-01-26T07:50:53.676Z,41.53
2023-01-26T07:53:23.057Z,67.90
2023-01-26T07:55:51.423Z,65.03
2023-01-26T07:58:19.606Z,52.57
2023-01-26T08:00:48.211Z,42.77
2023-01-26T08:03:17.802Z,43.10
2023-01-26T08:05:47.230Z,42.90
2023-01-26T08:08:15.776Z,46.03
2023-01-26T08:10:43.986Z,49.27
2023-01-26T08:13:12.167Z,45.10
2023-01-26T08:15:40.344Z,45.47
2023-01-26T08:18:08.845Z,44.93
2023-01-26T08:20:38.525Z,44.90
2023-01-26T08:23:06.708Z,47.37
2023-01-26T08:25:34.832Z,47.10
2023-01-26T08:28:03.472Z,48.10
2023-01-26T08:30:31.604Z,43.70
2023-01-26T08:32:59.812Z,44.23
2023-01-26T08:35:28.120Z,42.50
2023-01-26T08:37:57.763Z,40.67
2023-01-26T08:40:26.050Z,42.93
2023-01-26T08:42:54.787Z,37.20
2023-01-26T08:45:23.374Z,40.03
2023-01-26T08:47:52.177Z,36.60
2023-01-26T08:50:20.618Z,36.63
2023-01-26T08:52:49.358Z,37.87
2023-01-26T08:55:18.903Z,57.47
2023-01-26T08:57:47.566Z,50.20
2023-01-26T09:00:16.811Z,41.93
2023-01-26T09:02:45.117Z,40.90
2023-01-26T09:05:13.373Z,42.97
2023-01-26T09:07:41.634Z,38.57
2023-01-26T09:10:11.469Z,40.83
2023-01-26T09:12:41.364Z,40.13
2023-01-26T09:15:10.763Z,44.23
2023-01-26T09:17:39.072Z,37.80
2023-01-26T09:20:09.494Z,36.10
2023-01-26T09:22:37.827Z,40.47
2023-01-26T09:25:06.939Z,42.77
2023-01-26T09:27:35.293Z,38.00
2023-01-26T09:30:06.583Z,36.60
2023-01-26T09:32:34.901Z,39.37
2023-01-26T09:35:03.149Z,38.20
2023-01-26T09:37:33.740Z,37.77
2023-01-26T09:40:01.878Z,39.67
2023-01-26T09:42:43.745Z,37.27
2023-01-26T09:45:27.728Z,41.20
2023-01-26T09:48:18.100Z,37.47
2023-01-26T09:50:53.234Z,36.83
2023-01-26T09:53:26.956Z,38.50
2023-01-26T09:55:58.089Z,33.73
2023-01-26T09:58:35.649Z,33.40
2023-01-26T10:01:06.950Z,34.77
2023-01-26T10:03:42.391Z,32.53
2023-01-26T10:06:17.287Z,33.20
2023-01-26T10:09:26.937Z,37.23
2023-01-26T10:11:59.116Z,29.63
2023-01-26T10:14:35.547Z,30.47
2023-01-26T10:17:08.195Z,32.60
2023-01-26T10:19:41.038Z,29.80
2023-01-26T10:22:17.173Z,32.53
2023-01-26T10:24:50.261Z,31.90
2023-01-26T10:27:19.113Z,24.80
2023-01-26T10:29:47.328Z,23.07
2023-01-26T10:32:19.185Z,24.40
2023-01-26T10:34:49.514Z,23.00
2023-01-26T10:37:22.815Z,23.93
2023-01-26T10:40:02.447Z,22.87
2023-01-26T10:42:32.699Z,20.20
2023-01-26T10:45:02.720Z,22.20
2023-01-26T10:47:32.530Z,20.70
2023-01-26T10:50:20.444Z,17.53
2023-01-26T10:52:59.837Z,20.50
2023-01-26T10:55:29.360Z,19.30
2023-01-26T10:57:57.899Z,17.23
2023-01-26T11:00:29.169Z,19.57
2023-01-26T11:03:05.530Z,17.37
2023-01-26T11:05:33.827Z,17.83
2023-01-26T11:08:03.461Z,19.73
2023-01-26T11:10:33.767Z,23.33
2023-01-26T11:13:14.083Z,17.67
2023-01-26T11:15:44.197Z,16.63
2023-01-26T11:18:24.713Z,15.23
2023-01-26T11:20:58.623Z,16.37
2023-01-26T11:23:42.433Z,13.10
2023-01-26T11:26:34.367Z,13.70
2023-01-26T11:29:25.880Z,14.37
2023-01-26T11:32:04.322Z,13.77
2023-01-26T11:34:42.538Z,14.33
2023-01-26T11:37:36.449Z,12.90
2023-01-26T11:40:22.136Z,13.00
2023-01-26T11:42:59.686Z,12.53
2023-01-26T11:45:33.823Z,11.90
2023-01-26T11:48:17.049Z,12.00
2023-01-26T11:50:51.636Z,11.57
2023-01-26T11:53:43.326Z,11.47
2023-01-26T11:56:22.278Z,9.60
2023-01-26T11:58:55.973Z,10.10
2023-01-26T12:01:29.127Z,9.90
2023-01-26T12:03:58.833Z,9.93
2023-01-26T12:06:38.712Z,11.40
2023-01-26T12:09:18.612Z,10.07
2023-01-26T12:11:52.771Z,12.73
2023-01-26T12:14:27.427Z,11.03
2023-01-26T12:17:18.695Z,10.43
2023-01-26T12:19:53.968Z,9.20
2023-01-26T12:22:29.864Z,10.10
2023-01-26T12:25:18.891Z,11.53
2023-01-26T12:27:53.010Z,9.80
2023-01-26T12:30:31.827Z,10.47
2023-01-26T12:33:00.460Z,9.67
2023-01-26T12:35:38.128Z,7.17
2023-01-26T12:38:18.240Z,7.43
2023-01-26T12:40:59.065Z,7.43
2023-01-26T12:43:44.416Z,7.13
2023-01-26T12:46:14.149Z,6.70
2023-01-26T12:48:47.104Z,8.00
2023-01-26T12:51:20.539Z,7.60
2023-01-26T12:53:57.840Z,7.17
2023-01-26T12:56:32.629Z,8.20
2023-01-26T12:59:08.453Z,11.20
2023-01-26T13:01:42.426Z,10.03
2023-01-26T13:04:12.678Z,10.33
2023-01-26T13:06:41.551Z,12.10
2023-01-26T13:09:25.785Z,11.37
2023-01-26T13:11:55.570Z,10.60
2023-01-26T13:14:34.329Z,13.27
2023-01-26T13:17:49.820Z,13.20
2023-01-26T13:20:50.165Z,12.90
2023-01-26T13:23:52.654Z,12.77
2023-01-26T13:26:47.302Z,16.00
2023-01-26T13:29:36.426Z,13.27
2023-01-26T13:32:38.157Z,16.10
2023-01-26T13:35:13.094Z,20.20
2023-01-26T13:37:49.985Z,15.07
2023-01-26T13:40:22.273Z,20.90
2023-01-26T13:42:59.566Z,20.00
2023-01-26T13:45:33.576Z,24.83
2023-01-26T13:48:03.310Z,22.07
2023-01-26T13:50:33.515Z,19.70
2023-01-26T13:53:02.184Z,20.03
2023-01-26T13:55:33.061Z,34.40
2023-01-26T13:58:16.891Z,17.37
2023-01-26T14:00:59.563Z,19.43
2023-01-26T14:03:28.423Z,23.27
2023-01-26T14:05:59.599Z,23.90
2023-01-26T14:08:28.228Z,22.87
2023-01-26T14:10:57.057Z,25.07
2023-01-26T14:13:32.745Z,24.33
2023-01-26T14:16:02.703Z,23.23
2023-01-26T14:18:33.235Z,25.87
2023-01-26T14:21:04.027Z,29.63
2023-01-26T14:23:36.422Z,32.23
2023-01-26T14:26:06.853Z,27.40
2023-01-26T14:28:38.839Z,26.60
2023-01-26T14:31:15.049Z,24.93
2023-01-26T14:33:43.351Z,26.20
2023-01-26T14:36:16.928Z,32.97
2023-01-26T14:38:47.346Z,28.80
2023-01-26T14:41:19.550Z,29.03
2023-01-26T14:43:50.002Z,34.10
2023-01-26T14:46:22.804Z,30.93
2023-01-26T14:48:53.834Z,29.70
2023-01-26T14:51:24.511Z,31.30
2023-01-26T14:53:55.256Z,33.10
2023-01-26T14:56:31.712Z,32.10
2023-01-26T14:59:02.640Z,34.27
2023-01-26T15:01:31.791Z,33.17
2023-01-26T15:04:05.020Z,32.50
2023-01-26T15:06:34.769Z,41.27
2023-01-26T15:09:06.167Z,35.97
2023-01-26T15:11:54.170Z,34.73
2023-01-26T15:14:36.611Z,31.77
2023-01-26T15:17:05.829Z,39.47
2023-01-26T15:19:41.759Z,28.73
2023-01-26T15:22:22.046Z,35.00
2023-01-26T15:25:01.904Z,38.90
2023-01-26T15:27:35.159Z,31.50
2023-01-26T15:30:07.943Z,25.00
2023-01-26T15:32:40.925Z,27.73
2023-01-26T15:35:26.350Z,19.90
2023-01-26T15:38:02.754Z,19.23
2023-01-26T15:40:31.832Z,22.00
2023-01-26T15:43:13.365Z,23.00
2023-01-26T15:45:49.323Z,20.13
2023-01-26T15:48:17.575Z,17.37
2023-01-26T15:50:47.305Z,20.53
2023-01-26T15:53:16.484Z,21.70
2023-01-26T15:55:46.029Z,22.67
2023-01-26T15:58:14.291Z,22.70
2023-01-26T16:00:44.037Z,26.37
2023-01-26T16:03:16.208Z,23.10
2023-01-26T16:05:47.718Z,27.20
2023-01-26T16:08:16.647Z,31.77
2023-01-26T16:10:45.538Z,26.50
2023-01-26T16:13:17.649Z,27.80
2023-01-26T16:15:49.903Z,25.07
2023-01-26T16:18:18.703Z,21.33
2023-01-26T16:20:49.274Z,23.80
2023-01-26T16:23:20.637Z,30.47
2023-01-26T16:25:49.599Z,32.93
2023-01-26T16:28:18.255Z,24.77
2023-01-26T16:30:50.895Z,29.00
2023-01-26T16:33:21.240Z,34.20
2023-01-26T16:35:49.750Z,25.80
2023-01-26T16:38:17.998Z,31.50
2023-01-26T16:40:48.829Z,28.93
2023-01-26T16:43:21.400Z,28.20
2023-01-26T16:45:52.432Z,26.13
2023-01-26T16:48:21.424Z,31.27
2023-01-26T16:50:52.966Z,28.87
2023-01-26T16:53:26.527Z,26.50
2023-01-26T16:55:55.228Z,37.93
2023-01-26T16:58:26.299Z,28.27
2023-01-26T17:00:56.575Z,23.03
2023-01-26T17:03:25.335Z,23.17
2023-01-26T17:05:53.581Z,27.90
2023-01-26T17:08:21.765Z,20.83
2023-01-26T17:11:01.717Z,24.87
2023-01-26T17:13:31.511Z,23.27
2023-01-26T17:16:01.338Z,25.27
2023-01-26T17:18:29.664Z,26.97
2023-01-26T17:21:03.857Z,28.90
2023-01-26T17:23:32.378Z,22.40
2023-01-26T17:26:00.880Z,22.37
2023-01-26T17:28:29.521Z,24.40
2023-01-26T17:31:00.798Z,19.63
2023-01-26T17:33:31.262Z,22.50
2023-01-26T17:36:01.244Z,17.60
2023-01-26T17:38:29.538Z,26.47
2023-01-26T17:40:58.316Z,20.60
2023-01-26T17:43:26.951Z,17.63
2023-01-26T17:46:04.013Z,20.90
2023-01-26T17:48:34.231Z,20.47
2023-01-26T17:51:05.350Z,17.50
2023-01-26T17:53:33.601Z,18.20
2023-01-26T17:56:01.829Z,23.63
2023-01-26T17:58:30.059Z,19.07
2023-01-26T18:00:58.401Z,26.13
2023-01-26T18:03:27.460Z,18.60
2023-01-26T18:05:58.401Z,16.13
2023-01-26T18:08:27.428Z,17.00
2023-01-26T18:11:00.012Z,15.83
2023-01-26T18:13:29.042Z,20.83
2023-01-26T18:15:57.337Z,21.97
2023-01-26T18:18:26.724Z,17.97
2023-01-26T18:20:56.677Z,17.40
2023-01-26T18:23:25.658Z,22.03
2023-01-26T18:25:53.807Z,28.33
2023-01-26T18:28:22.018Z,22.00
2023-01-26T18:30:50.218Z,18.53
2023-01-26T18:33:18.487Z,19.80
2023-01-26T18:35:46.952Z,19.80
2023-01-26T18:38:16.617Z,23.80
2023-01-26T18:40:44.915Z,24.60
2023-01-26T18:43:13.231Z,27.00
2023-01-26T18:45:43.119Z,22.07
2023-01-26T18:48:11.564Z,24.00
2023-01-26T18:50:40.045Z,20.10
2023-01-26T18:53:08.638Z,21.83
2023-01-26T18:55:38.803Z,18.03
2023-01-26T18:58:07.134Z,32.07
2023-01-26T19:00:36.386Z,34.93
2023-01-26T19:03:05.279Z,40.87
2023-01-26T19:05:33.639Z,34.70
2023-01-26T19:08:10.108Z,28.47
2023-01-26T19:10:40.397Z,29.20
2023-01-26T19:13:09.526Z,24.50
2023-01-26T19:15:37.808Z,18.37
2023-01-26T19:18:06.256Z,25.50
2023-01-26T19:20:34.567Z,26.30
2023-01-26T19:23:03.951Z,22.73
2023-01-26T19:25:32.771Z,18.23
2023-01-26T19:28:02.595Z,20.97
2023-01-26T19:30:31.316Z,23.30
2023-01-26T19:33:16.846Z,18.60
2023-01-26T19:35:45.450Z,17.50
2023-01-26T19:38:13.696Z,21.50
2023-01-26T19:40:42.181Z,20.57
2023-01-26T19:43:12.495Z,20.73
2023-01-26T19:45:40.813Z,21.80
2023-01-26T19:48:09.230Z,14.63
2023-01-26T19:50:37.947Z,17.10
2023-01-26T19:53:07.719Z,15.70
2023-01-26T19:55:36.088Z,21.37
2023-01-26T19:58:04.504Z,14.60
2023-01-26T20:00:34.470Z,17.43
2023-01-26T20:03:02.711Z,24.13
2023-01-26T20:05:31.024Z,19.90
2023-01-26T20:07:59.225Z,15.97
2023-01-26T20:10:27.463Z,24.80
2023-01-26T20:12:57.368Z,29.50
2023-01-26T20:15:25.937Z,24.23
2023-01-26T20:17:55.719Z,17.37
2023-01-26T20:20:24.501Z,20.17
2023-01-26T20:22:52.855Z,18.67
2023-01-26T20:25:21.254Z,16.27
2023-01-26T20:27:49.468Z,26.90
2023-01-26T20:30:24.016Z,24.00
2023-01-26T20:33:04.302Z,18.73
2023-01-26T20:35:33.369Z,16.83
2023-01-26T20:38:12.156Z,18.83
2023-01-26T20:40:51.402Z,15.83
2023-01-26T20:43:22.913Z,13.90
2023-01-26T20:45:55.889Z,15.13
2023-01-26T20:48:36.982Z,13.80
2023-01-26T20:51:16.982Z,14.53
2023-01-26T20:53:52.329Z,11.30
2023-01-26T20:56:23.180Z,12.27
2023-01-26T20:58:55.728Z,16.00
2023-01-26T21:01:34.803Z,19.80
2023-01-26T21:04:08.976Z,15.43
2023-01-26T21:06:39.429Z,15.57
2023-01-26T21:09:13.071Z,22.63
2023-01-26T21:11:41.874Z,18.10
2023-01-26T21:14:12.994Z,18.13
2023-01-26T21:16:41.586Z,10.73
2023-01-26T21:19:11.281Z,11.93
2023-01-26T21:21:39.499Z,14.97
2023-01-26T21:24:08.572Z,11.70
2023-01-26T21:26:36.945Z,8.73
2023-01-26T21:29:06.248Z,12.23
2023-01-26T21:31:35.117Z,8.77
2023-01-26T21:34:03.485Z,9.23
2023-01-26T21:36:34.208Z,8.00
2023-01-26T21:39:02.689Z,9.53
2023-01-26T21:41:49.571Z,9.70
2023-01-26T21:44:19.383Z,10.30
2023-01-26T21:46:49.747Z,9.63
2023-01-26T21:49:18.644Z,7.77
2023-01-26T21:52:05.884Z,11.07
2023-01-26T21:54:35.008Z,12.07
2023-01-26T21:57:25.123Z,9.30
2023-01-26T21:59:52.679Z,10.50
2023-01-26T22:02:21.076Z,11.57
2023-01-26T22:04:49.299Z,7.57
2023-01-26T22:07:18.813Z,7.70
2023-01-26T22:09:47.394Z,13.27
2023-01-26T22:12:16.484Z,11.17
2023-01-26T22:14:45.126Z,6.17
2023-01-26T22:17:13.390Z,9.23
2023-01-26T22:19:41.628Z,9.97
2023-01-26T22:22:09.931Z,9.50
2023-01-26T22:24:39.489Z,8.43
2023-01-26T22:27:08.287Z,5.90
2023-01-26T22:29:36.724Z,8.80
2023-01-26T22:32:05.211Z,6.63
2023-01-26T22:34:33.461Z,5.97
2023-01-26T22:37:01.671Z,8.67
2023-01-26T22:39:29.824Z,7.13
2023-01-26T22:41:59.552Z,6.07
2023-01-26T22:44:28.124Z,8.60
2023-01-26T22:46:56.274Z,8.10
2023-01-26T22:49:24.491Z,5.53
2023-01-26T22:51:52.767Z,7.77
2023-01-26T22:54:21.039Z,4.50
2023-01-26T22:56:49.482Z,4.00
2023-01-26T22:59:19.083Z,7.03
2023-01-26T23:01:47.474Z,2.90
2023-01-26T23:04:16.311Z,6.47
2023-01-26T23:06:44.558Z,4.93
2023-01-26T23:09:14.003Z,9.73
2023-01-26T23:11:42.231Z,6.77
2023-01-26T23:14:10.464Z,10.30
2023-01-26T23:16:40.113Z,6.30
2023-01-26T23:19:08.515Z,9.63
2023-01-26T23:21:36.804Z,5.53
2023-01-26T23:24:05.264Z,6.07
2023-01-26T23:26:33.655Z,5.53
2023-01-26T23:29:01.834Z,5.30
2023-01-26T23:31:31.900Z,5.43
2023-01-26T23:34:02.823Z,3.83
2023-01-26T23:36:31.097Z,5.17
2023-01-26T23:38:59.376Z,5.83
2023-01-26T23:41:27.891Z,6.20
2023-01-26T23:43:56.206Z,6.13
2023-01-26T23:46:24.376Z,6.70
2023-01-26T23:48:52.558Z,5.80
2023-01-26T23:51:22.089Z,4.27
2023-01-26T23:53:50.442Z,7.23
2023-01-26T23:56:19.245Z,5.23
2023-01-26T23:58:47.347Z,5.47
